x

Montauk Point -23 Nm Ssw Of Montauk Point, Ny (44017) Wave Buoy

4:50am - Sun 7th Feb 2016 All times are EST. -5 hours from GMT.

  • Sig Wave height 3.0ft
  • Swell Direction
  • Peak Period 5s
  • Average Period 4s
  • Wind
    13mph, 16mph gusts
  • Sea Temp 45°f
  • Air Temp 40°f
  • Sea Pressure 1022.2mb
  • Montauk Point -23 Nm Ssw Of Montauk Point, Ny
  • Montauk Point -23 Nm Ssw Of Montauk Point, Ny

More Historic Weather Station data

Upgrade to MSW Pro to gain access to the past 30 days of data for over 8000 Wavebouys and Weather Stations around the globe.

Join Pro

Comparision Forecast

View Surf forecast
   
Sun 02/07 4:50am 3ft 5s 4s 13 16 mph 1022.2mb 45f 40f
3:50am 3ft 5s 4s 16 18 mph 1022.8mb 45f 41f
2:50am 3.5ft 5s 4s 13 18 mph 1023.6mb 45f 41f
1:50am 3.5ft 5s 4s 13 18 mph 1023.4mb 45f 40f
12:50am 3.5ft 5s 4s 16 18 mph 1024mb 45f 41f
Sat 02/06 11:50pm 3.5ft 5s 4s 18 22 mph 1024.6mb 45f 41f
10:50pm 3.5ft 4s 4s 18 20 mph 1025.2mb 45f 41f
9:50pm 3.5ft 4s 4s 16 20 mph 1025.4mb 45f 41f
8:50pm 3ft 4s 4s 18 20 mph 1025.5mb 46f 41f
7:50pm 3ft 4s 4s 16 20 mph 1025.7mb 46f 40f
6:50pm 3ft 4s 4s 16 20 mph 1025.8mb 47f 40f
5:50pm 3ft 9s 4s 18 20 mph 1025.8mb 47f 39f
4:50pm 3ft 9s 4s 18 22 mph 1026.1mb 47f 39f
3:50pm 3ft 9s 5s 16 20 mph 1026.3mb 47f 38f
2:50pm 2.5ft 9s 4s 16 20 mph 1026.8mb 46f 37f
1:50pm 2.5ft 9s 6s 13 18 mph 1027.3mb 46f 38f
12:50pm 2.5ft 11s 6s 9 13 mph 1028.4mb 46f 36f
11:50am 2.5ft 10s 6s 7 11 mph 1029.5mb 46f 35f
10:50am 2.5ft 10s 6s 4 9 mph 1030.2mb 46f 34f
9:50am 2.5ft 10s 5s 7 9 mph 1030.3mb 46f 34f
8:50am 2.5ft 10s 5s 7 11 mph 1030mb 46f 33f
7:50am 2.5ft 10s 4s 11 16 mph 1029.4mb 46f 33f
6:50am 3ft 10s 5s 13 18 mph 1029mb 46f 33f
5:50am 3.5ft 11s 5s 13 18 mph 1028.2mb 46f 33f
4:50am 4ft 10s 5s 16 20 mph 1027.3mb 46f 33f
3:50am 4ft 5s 4s 18 22 mph 1026.8mb 46f 34f
2:50am 4.5ft 11s 5s 18 22 mph 1026.7mb 46f 34f
1:50am 4.5ft 4s 5s 20 25 mph 1026mb 46f 34f
12:50am 5.5ft 10s 5s 25 29 mph 1024.7mb 46f 35f
Fri 02/05 11:50pm 5.5ft 11s 5s 25 31 mph 1024.5mb 46f 36f
10:50pm 5.5ft 5s 5s 27 34 mph 1024.3mb 46f 37f
9:50pm 5ft 5s 5s 29 36 mph 1023.1mb 46f 38f
8:50pm 5ft 5s 5s 29 38 mph 1022.5mb 47f 38f
7:50pm 5ft 5s 5s 27 34 mph 1021.7mb 47f 39f
6:50pm 5ft 4s 4s 27 34 mph 1020.7mb 47f 39f
5:50pm 4.5ft 5s 5s 27 34 mph 1019.4mb 46f 39f
4:50pm 6.5ft 5s 5s 20 25 mph 1018.4mb 47f 37f
3:50pm 7ft 5s 5s 29 34 mph 1016.9mb 47f 35f
2:50pm 6.5ft 5s 5s 36 43 mph 1014.5mb 47f 34f
1:50pm 6.5ft 5s 5s 29 36 mph 1013.1mb 47f 35f
12:50pm 6ft 5s 5s 34 40 mph 1011.5mb 47f 35f
11:50am 6ft 5s 5s 29 36 mph 1013.4mb 46f 36f
10:50am 7ft 5s 5s 31 38 mph 1013.6mb 46f 35f
9:50am 6.5ft 5s 5s 34 40 mph 1012.6mb 45f 35f
8:50am 7ft 5s 5s 31 38 mph 1013.4mb 45f 35f
7:50am 6.5ft 5s 5s 34 40 mph 1013.3mb 45f 37f
6:50am 6ft 5s 5s 31 38 mph 1013.4mb 44f 38f
5:50am 6ft 9s 5s 31 38 mph 1012.6mb 44f 38f
4:50am 5.5ft 8s 5s 27 31 mph 1013.3mb 44f 39f
3:50am 6ft 9s 6s 25 29 mph 1014mb 44f 40f
2:50am 5.5ft 8s 5s 25 29 mph 1015mb 44f 40f
1:50am 6ft 9s 6s 25 29 mph 1014.7mb 44f 41f
12:50am 6ft 9s 6s 22 27 mph 1015.3mb 44f 41f
Thu 02/04 11:50pm 6.5ft 9s 7s 20 25 mph 1016.4mb 44f 43f
10:50pm 6.5ft 10s 7s 16 18 mph 1016.4mb 44f 44f
9:50pm 7ft 9s 8s 11 13 mph 1017mb 44f 44f
8:50pm 7ft 9s 8s 11 16 mph 1017mb 45f 45f
7:50pm 7ft 10s 8s 2 7 mph 1017.5mb 45f 46f
6:50pm 6.5ft 9s 7s 2 4 mph 1016.9mb 45f 46f
5:50pm 6.5ft 9s 7s 4 7 mph 1016.6mb 45f 46f
4:50pm 7ft 9s 7s 4 7 mph 1016.2mb 45f 46f
3:50pm 6.5ft 9s 7s 2 4 mph 1015.6mb 45f 46f
2:50pm 7ft 9s 7s 2 4 mph 1015.4mb 45f 47f
1:50pm 6ft 9s 7s 4 7 mph 1014.7mb 45f 46f
12:50pm 7ft 8s 7s 7 11 mph 1014.4mb 45f 47f
11:50am 7.5ft 9s 7s 13 18 mph 1014.3mb 45f 47f
10:50am 7.5ft 9s 7s 9 13 mph 1014.6mb 45f 47f
9:50am 8ft 9s 7s 13 16 mph 1014.1mb 45f 49f
8:50am 8ft 9s 7s 16 18 mph 1013mb 45f 51f
7:50am 7ft 8s 6s 16 20 mph 1012.6mb 45f 51f
6:50am 7ft 8s 6s 11 13 mph 1011.9mb 45f 50f
5:50am 6ft 7s 6s 7 9 mph 1012.4mb 45f 49f
4:50am 6ft 7s 6s 7 9 mph 1012.8mb 45f 49f
3:50am 6ft 7s 5s 13 16 mph 1012.3mb 45f 51f
2:50am 6ft 7s 5s 16 20 mph 1012.2mb 45f 51f
1:50am 6ft 7s 5s 22 25 mph 1012.1mb 45f 51f
12:50am 6ft 7s 5s 25 29 mph 1011mb 45f 53f
Wed 02/03 11:50pm 6.5ft 7s 5s 25 29 mph 1011.1mb 45f 51f
10:50pm 6ft 7s 5s 20 25 mph 1012.6mb 45f 52f
9:50pm 6ft 7s 5s 20 22 mph 1013.9mb 45f 51f
8:50pm 6ft 7s 5s 25 29 mph 1014.3mb 45f 53f
7:50pm 6ft 7s 5s 22 27 mph 1014.4mb 45f 52f
6:50pm 6ft 7s 5s 22 27 mph 1014.6mb 45f 53f
5:50pm 6ft 7s 5s 20 25 mph 1015.4mb 45f 52f
4:50pm 6ft 7s 5s 20 22 mph 1015.9mb 45f 52f
3:50pm 7ft 7s 5s 20 22 mph 1016mb 45f 52f
2:50pm 7.5ft 7s 5s 22 27 mph 1015.9mb 45f 52f
1:50pm 7ft 7s 5s 27 29 mph 1015.7mb 45f 52f
12:50pm 7ft 6s 5s 25 31 mph 1017.3mb 45f 52f
11:50am 6.5ft 6s 5s 27 29 mph 1019mb 45f 51f